Mexican Hat, Utah
Current Conditions -  °F | °C
As of 12:15 PM on Tuesday 21 Oct 2014 (Local Time) from KBDG Reporting Station
Scattered Clouds Scattered Clouds  
Wind Chill: 16°   Ceiling: Unl
Heat Index: 16°   Visibility: 10mi
Dew Point:   Wind: 6mph
Humidity: 51%   Direction: 150°SSE
Pressure: 30.21"   Gusts: NA
Location:  37.15°N, 109.86°W
Report Text: KBDG 211815Z AUTO 15005KT 10SM SCT055 SCT070 SCT095 16/06 A3021 RMK AO1 T01640063
Loading
Personal Weather Stations






























Interactive Weather Map
Tropical Storm Tracking
New forecast layout! Learn more

10-Day Weather Forecast

Advertisements
Track Severe Weather on mobile